Etusivu
METAR-TAF:

METAR-TAF

Lentoasemat :

Heidrun, Norja

Leveyspiiri: 65-19-30N, Pituuspiiri: 007-19-36E, korkeus merenpinnasta: 0 m

Tämänhetkinen sää

Tämä raportti tehtiin 16 minuuttia sitten, kello 04.50 UTC
Tuuli 5 kn pohjoisen/luoteesta
Lämpötila 7°C
Kosteus 76%
Ilmanpaine 1016 hPa
Näkyvyys 10 km tai enemmän
Hajonneita pilviä 2600 ft:n korkeudessa

METAR: ENHE 230450Z 34005KT 9999 BKN026 07/03 Q1016 W///S3

Aika: 07:06 (05:06 UTC)

Sääennuste

Tämä raportti tehtiin 3 tuntia ja 6 minuuttia sitten, kello 02.00 UTC
Ennuste voimassa 23. päivästä klo 03 UTC - 23. päivään klo 12 UTC
Tuuli 8 kn pohjoisesta/koillisesta
Näkyvyys 10 km tai enemmän
Muutamia pilviä 800 ft:n korkeudessa
Hajonneita pilviä 3000 ft:n korkeudessa

TAF: ENHE 230200Z 2303/2312 02008KT 9999 FEW008 BKN030

Säähavainnot ja -ennusteet yli 4000 lentoasemalta (METAR- ja TAF-raportit).

Käytössä olevat sääasemat on merkitty karttaan keltaisilla ja punaisilla pisteillä.

Aseta hiiri pisteen päälle nähdäksesi sääaseman nimen.

Klikkaa sitten nähdäksesi säähavainnot ja -ennusteet.

Kartan vaihtaminen: klikkaa mustalla rastilla varustettuja vihreitä pisteitä, niin voit zoomata sisään; viivalla varustettua vihreää pistettä, niin voit zoomata ulos tai vihreitä nuolia, niin pääset viereisille kartoille.


METAR-TAF: